ROMMA est une association bénévole à but non lucratif. Votre soutien est indispensable : ADHERER à ROMMA ou FAIRE un DON

Saint-Vallier-de-Thiey - (06, Alpes-Maritimes)

Côte-d'Azur (723 m)   Longitude: 06° 50' 21" E   Latitude: 43° 42' 8" N Station partenaire n°150
 

Détail journalier du     <<     >>

Température Precipitation Humidité Pression Vent Dir Rafale Dir. rafale
Heure (°C) (mm) (%) (hPa) (km/h) (km/h)
01:00 17.107010175ENE24ENE
02:00 17.3069101611NE27NE
03:00 17.306910167E24E
04:00 17.207210149ENE26ENE
05:00 15.118610138ENE27ENE
06:00 15.029110138ENE32ENE
07:00 15.49.89510124SE18SE
08:00 15.80.69610126SSE24SO
09:00 15.869610117ESE26S
10:00 16.159610118S26SSE
11:00 13.359510116O24O
12:00 14.52.49310112NNO8NNO
13:00 14.70.49510111NNO6NNO
14:00 16.408910103S10S
15:00 16.609010104SSO15SO
16:00 17.706310105SO19SO
17:00 17.405810105O23O
18:00 15.606110115SO18OSO
19:00 13.806710115ONO21OSO
20:00 13.7058101213SO42SO
21:00 13.3060101215SO50SO
22:00 12.606110136SO35SO
23:00 11.906410136ONO32SO
minuit 11.406510138SSO31SSO

Graphique du 15-10-2019

 

Serveur OMMA